Fruitvale (215) Station Data

Red Flag Warning: No
Fire Weather Zone: 250
SDGE Region: North East
Lat/Lon: 33.256/-116.982

Observations

Time Wind Speed/Gust Temp(F) RH Fuel Moist Fuel Temp(F) Dewpt(F) Tmax(F) Tmin(F) Accum Precip 10-min Precip SL Press(mb)
6/27 5:00pm 242 9 G 13 89° 14% - - 34° 94.6° 77° - - -
6/27 4:50pm 263 7 G 13 90° 15% - - 35° 94.6° 77° - - -
6/27 4:40pm 259 8 G 14 90° 14% - - 34° 94.6° 77° - - -
6/27 4:30pm 270 9 G 16 90° 14% - - 35° 94.6° 77° - - -
6/27 4:20pm 260 7 G 12 91° 13% - - 33° 94.6° 77° - - -
6/27 4:10pm 238 10 G 16 91° 11% - - 30° 94.6° 77° - - -
6/27 4:00pm 233 10 G 15 91° 11% - - 29° 94.6° 77° - - -
6/27 3:50pm 254 8 G 15 91° 11% - - 29° 94.6° 77° - - -
6/27 3:40pm 233 11 G 16 91° 11% - - 29° 94.6° 77° - - -
6/27 3:30pm 247 9 G 17 92° 11% - - 30° 94.6° 77° - - -
6/27 3:20pm 238 10 G 16 91° 12% - - 31° 94.6° 77° - - -
6/27 3:10pm 235 12 G 18 92° 12% - - 32° 94.6° 77° - - -
6/27 3:00pm 244 11 G 17 92° 13% - - 33° 94.6° 77° - - -
6/27 2:50pm 251 12 G 18 92° 13% - - 34° 94.6° 77° - - -
6/27 2:40pm 271 11 G 17 92° 12% - - 33° 94.6° 77° - - -
6/27 2:30pm 284 11 G 17 93° 11% - - 31° 94.6° 77° - - -
6/27 2:20pm 280 9 G 15 93° 11% - - 30° 94.6° 77° - - -
6/27 2:10pm 260 10 G 16 92° 10% - - 28° 94.6° 77° - - -
6/27 2:00pm 262 10 G 17 93° 9% - - 27° 94.6° 77° - - -
6/27 1:50pm 259 9 G 15 93° 9% - - 27° 94.6° 77° - - -
6/27 1:40pm 251 11 G 18 92° 9% - - 26° 94.6° 77° - - -
6/27 1:30pm 251 11 G 15 93° 10% - - 28° 94.6° 77° - - -
6/27 1:20pm 251 9 G 15 94° 10% - - 28° 94.6° 77° - - -
6/27 1:10pm 257 10 G 15 93° 11% - - 30° 94.3° 77° - - -
6/27 1:00pm 243 11 G 18 93° 11% - - 29° 94.3° 77° - - -
6/27 12:50pm 242 9 G 15 93° 10% - - 30° 94.3° 77° - - -
6/27 12:40pm 249 9 G 13 93° 10% - - 27° 94° 77° - - -
6/27 12:30pm 255 9 G 14 93° 10% - - 28° 94° 77° - - -
6/27 12:20pm 255 8 G 15 93° 9% - - 26° 93.7° 77° - - -
6/27 12:10pm 264 8 G 15 92° 9% - - 25° 93.7° 77° - - -
6/27 12:00pm 242 8 G 15 92° 8% - - 24° 93.6° 77° - - -
6/27 11:50am 256 8 G 13 93° 9% - - 25° 93.6° 77° - - -
6/27 11:40am 271 7 G 12 92° 9% - - 26° 93.3° 77° - - -
6/27 11:30am 259 8 G 13 91° 9% - - 25° 92° 77° - - -
6/27 11:20am 292 7 G 12 91° 9% - - 25° 92° 77° - - -
6/27 11:10am 268 5 G 10 90° 9% - - 25° 91.5° 77° - - -
6/27 11:00am 270 8 G 14 90° 9% - - 24° 91.3° 77° - - -
6/27 10:50am 267 6 G 11 90° 9% - - 24° 90.9° 77° - - -
6/27 10:30am 305 4 G 9 90° 9% - - 24° 90.9° 77° - - -
6/27 10:20am 269 5 G 9 90° 9% - - 23° 90.9° 77° - - -
6/27 10:10am 268 3 G 6 90° 8% - - 21° 90.7° 77° - - -
6/27 10:00am 239 4 G 7 90° 9% - - 22° 90.1° 77° - - -
6/27 9:50am 240 4 G 7 89° 9% - - 22° 89.3° 77° - - -
6/27 9:40am 208 4 G 7 88° 9% - - 23° 89.3° 77° - - -
6/27 9:30am 201 4 G 7 88° 9% - - 23° 88.6° 77° - - -
6/27 9:20am 195 3 G 6 88° 10% - - 24° 88.6° 77° - - -
6/27 9:10am 206 3 G 5 87° 10% - - 23° 87.3° 77° - - -
6/27 8:50am 221 2 G 4 87° 10% - - 25° 87° 77° - - -
6/27 8:40am 215 2 G 3 86° 11% - - 25° 86.3° 77° - - -
6/27 8:30am 205 2 G 3 85° 11% - - 25° 86.1° 77° - - -
6/27 8:20am 174 1 G 3 85° 11% - - 24° 86.1° 77° - - -
6/27 8:10am 93 1 G 2 85° 10% - - 23° 86.1° 77° - - -
6/27 8:00am 103 2 G 3 84° 12% - - 26° 86.1° 77° - - -
6/27 7:50am 96 2 G 4 84° 12% - - 27° 86.1° 77° - - -
6/27 7:40am 102 1 G 2 85° 11% - - 24° 86.1° 77° - - -
6/27 7:30am 24 1 G 2 81° 12% - - 24° 83.3° 77° - - -
6/27 7:20am 46 2 G 3 79° 14% - - 26° 82.6° 77° - - -
6/27 7:10am 37 3 G 5 78° 14% - - 25° 82.6° 77° - - -
6/27 7:00am 47 4 G 5 78° 14% - - 25° 82.6° 77° - - -
6/27 6:50am 47 4 G 5 78° 14% - - 25° 82.6° 77° - - -
6/27 6:40am 29 3 G 4 78° 13% - - 24° 82.6° 77° - - -
6/27 6:30am 40 4 G 5 77° 13% - - 23° 82.6° 77° - - -
6/27 6:20am 46 4 G 5 78° 13% - - 23° 82.6° 77.1° - - -
6/27 6:10am 30 4 G 5 78° 13% - - 23° 82.6° 77.3° - - -
6/27 6:00am 48 3 G 4 78° 13% - - 23° 82.6° 77.4° - - -
6/27 5:50am 50 3 G 4 78° 13% - - 23° 82.6° 77.4° - - -
6/27 5:40am 42 4 G 5 78° 13% - - 23° 82.6° 77.6° - - -
6/27 5:30am 33 3 G 4 80° 12% - - 23° 82.6° 77.7° - - -
6/27 5:20am 344 1 G 3 80° 11% - - 22° 82.6° 77.7° - - -
6/27 5:10am 30 2 G 3 80° 12% - - 23° 82.6° 77.7° - - -
6/27 5:00am 46 3 G 3 80° 12% - - 23° 82.6° 77.7° - - -
6/27 4:50am 27 2 G 3 81° 12% - - 23° 82.6° 77.7° - - -
6/27 4:40am 266 0 G 2 81° 12% - - 23° 82.6° 77.7° - - -
6/27 4:30am 345 2 G 4 80° 12% - - 23° 82.6° 77.7° - - -
6/27 4:20am 33 3 G 4 81° 12% - - 23° 82.6° 77.7° - - -
6/27 4:10am 237 1 G 1 82° 11% - - 23° 82.6° 77.7° - - -
6/27 4:00am 27 2 G 3 81° 12% - - 23° 82.3° 77.7° - - -
6/27 3:50am 50 3 G 4 80° 12% - - 23° 82.3° 77.7° - - -
6/27 3:40am 43 4 G 5 80° 12% - - 23° 82.3° 77.7° - - -
6/27 3:30am 39 4 G 5 80° 13% - - 24° 82.3° 77.7° - - -
6/27 3:20am 31 4 G 5 79° 13% - - 24° 82.3° 77.7° - - -
6/27 3:10am 35 4 G 5 80° 13% - - 25° 82.3° 77.7° - - -
6/27 3:00am 32 5 G 5 80° 13% - - 24° 82.3° 77.7° - - -
6/27 2:50am 32 4 G 6 80° 13% - - 24° 82.3° 77.7° - - -
6/27 2:40am 30 4 G 5 80° 13% - - 24° 82.3° 77.7° - - -
6/27 2:30am 27 4 G 5 80° 13% - - 25° 82.3° 77.7° - - -
6/27 2:20am 36 4 G 5 80° 13% - - 25° 82.3° 77.7° - - -
6/27 2:10am 45 4 G 5 79° 13% - - 25° 82.3° 77.7° - - -
6/27 2:00am 37 4 G 5 78° 15% - - 26° 82.3° 77.7° - - -
6/27 1:50am 34 5 G 6 78° 15% - - 26° 82.3° 77.7° - - -
6/27 1:40am 38 5 G 7 79° 15% - - 27° 82.3° 78° - - -
6/27 1:30am 67 2 G 5 81° 14% - - 28° 82.3° 79.8° - - -
6/27 1:20am 161 3 G 4 81° 14% - - 28° 82.3° 79.8° - - -
6/27 1:10am 140 4 G 6 82° 14% - - 29° 82.3° 79.8° - - -
6/27 1:00am 158 2 G 5 81° 15% - - 30° 81.8° 79.8° - - -
6/27 12:50am 155 3 G 4 81° 16% - - 30° 81.8° 79.8° - - -
6/27 12:40am 125 3 G 5 81° 17% - - 31° 81.8° 79.8° - - -
6/27 12:30am 156 3 G 5 80° 17% - - 31° 80.8° 79.8° - - -
6/27 12:20am 154 3 G 5 81° 16% - - 31° 80.8° 80.1° - - -
6/27 12:10am 139 4 G 6 81° 17% - - 32° 80.8° 80.1° - - -
6/27 12:00am 134 4 G 5 80° 18% - - 33° 98.8° 78.3° - - -
6/26 11:50pm 156 3 G 5 79° 19% - - 34° 98.8° 78.3° - - -
6/26 11:40pm 137 2 G 4 79° 21% - - 36° 98.8° 78.3° - - -
6/26 11:30pm 95 2 G 5 79° 23% - - 37° 98.8° 78.3° - - -
6/26 11:20pm 109 3 G 5 79° 22% - - 37° 98.8° 78.3° - - -
6/26 11:10pm 129 4 G 6 80° 22% - - 38° 98.8° 78.6° - - -
6/26 11:00pm 137 4 G 5 80° 23% - - 39° 98.8° 78.6° - - -
6/26 10:50pm 153 4 G 5 80° 23% - - 39° 98.8° 78.6° - - -
6/26 10:40pm 201 3 G 5 80° 24% - - 40° 98.8° 78.6° - - -
6/26 10:30pm 257 4 G 5 80° 25% - - 40° 98.8° 78.6° - - -
6/26 10:20pm 262 3 G 5 79° 27% - - 42° 98.8° 78.6° - - -
6/26 10:10pm 251 4 G 6 79° 26% - - 42° 98.8° 78.9° - - -
6/26 10:00pm 251 5 G 6 80° 24% - - 40° 98.8° 79.5° - - -
6/26 9:50pm 247 4 G 5 82° 21% - - 38° 98.8° 79.6° - - -
6/26 9:40pm 253 3 G 4 83° 20% - - 38° 98.8° 79.6° - - -
6/26 9:30pm 269 2 G 3 85° 16% - - 34° 98.8° 79.6° - - -
6/26 9:20pm 272 2 G 4 84° 18% - - 36° 98.8° 79.6° - - -
6/26 9:10pm 268 2 G 3 84° 17% - - 35° 98.8° 79.6° - - -
6/26 9:00pm 251 2 G 3 84° 18% - - 36° 98.8° 79.6° - - -
6/26 8:50pm 283 1 G 2 85° 16% - - 34° 98.8° 79.6° - - -
6/26 8:40pm 322 1 G 4 85° 15% - - 32° 98.8° 79.6° - - -
6/26 8:30pm 316 4 G 5 84° 17% - - 34° 98.8° 79.6° - - -
6/26 8:20pm 297 5 G 6 84° 16% - - 34° 98.8° 79.6° - - -
6/26 8:10pm 294 6 G 8 85° 15% - - 32° 98.8° 79.6° - - -
6/26 8:00pm 286 7 G 8 86° 15% - - 32° 98.8° 79.6° - - -
6/26 7:50pm 283 6 G 7 87° 14% - - 32° 98.8° 79.6° - - -
6/26 7:40pm 284 5 G 8 88° 13% - - 31° 98.8° 79.6° - - -
6/26 7:30pm 274 4 G 7 89° 13% - - 31° 98.8° 79.6° - - -
6/26 7:20pm 273 6 G 9 89° 12% - - 30° 98.8° 79.6° - - -
6/26 7:10pm 270 7 G 10 90° 12% - - 29° 98.8° 79.6° - - -
6/26 7:00pm 267 6 G 10 90° 11% - - 30° 98.8° 79.6° - - -
6/26 6:50pm 275 6 G 10 91° 11% - - 30° 98.8° 79.6° - - -
6/26 6:40pm 276 7 G 13 91° 10% - - 28° 98.8° 79.6° - - -
6/26 6:30pm 272 7 G 10 92° 10% - - 27° 98.8° 79.6° - - -
6/26 6:20pm 272 9 G 13 92° 10% - - 26° 98.8° 79.6° - - -
6/26 6:10pm 277 10 G 15 92° 10% - - 27° 98.8° 79.6° - - -
6/26 6:00pm 279 9 G 15 93° 10% - - 28° 98.8° 79.6° - - -
6/26 5:50pm 277 11 G 15 93° 9% - - 25° 98.8° 79.6° - - -
6/26 5:40pm 272 10 G 16 94° 8% - - 24° 98.8° 79.6° - - -
6/26 5:30pm 271 11 G 15 94° 8% - - 23° 98.8° 79.6° - - -
6/26 5:20pm 265 10 G 17 94° 8% - - 24° 98.8° 79.6° - - -
6/26 5:10pm 266 11 G 17 94° 8% - - 24° 98.8° 79.6° - - -
6/26 5:00pm 260 11 G 17 95° 8% - - 24° 98.8° 79.6° - - -
6/26 4:50pm 259 11 G 16 95° 9% - - 27° 98.8° 79.6° - - -
6/26 4:40pm 266 10 G 15 95° 9% - - 28° 98.8° 79.6° - - -
6/26 4:30pm 268 11 G 16 95° 9% - - 28° 98.8° 79.6° - - -
6/26 4:20pm 267 11 G 16 95° 10% - - 30° 98.8° 79.6° - - -
6/26 4:10pm 260 12 G 18 95° 9% - - 28° 98.8° 79.6° - - -
6/26 4:00pm 264 13 G 17 95° 9% - - 27° 98.8° 79.6° - - -
6/26 3:50pm 263 13 G 18 95° 8% - - 24° 98.8° 79.6° - - -
6/26 3:40pm 253 12 G 18 96° 9% - - 28° 98.8° 79.6° - - -
6/26 3:30pm 270 12 G 16 96° 9% - - 29° 98.8° 79.6° - - -
6/26 3:20pm 269 13 G 20 96° 9% - - 27° 98.8° 79.6° - - -
6/26 3:10pm 262 12 G 19 96° 9% - - 28° 98.8° 79.6° - - -
6/26 3:00pm 262 11 G 16 96° 10% - - 31° 98.8° 79.6° - - -
6/26 2:50pm 269 12 G 18 96° 9% - - 29° 98.8° 79.6° - - -
6/26 2:40pm 261 13 G 20 96° 8% - - 26° 98.8° 79.6° - - -
6/26 2:30pm 264 12 G 18 96° 9% - - 29° 98.8° 79.6° - - -
6/26 2:20pm 270 14 G 19 96° 8% - - 25° 98.8° 79.6° - - -
6/26 2:10pm 261 13 G 18 96° 9% - - 28° 98.8° 79.6° - - -
6/26 2:00pm 274 13 G 18 96° 9% - - 28° 98.8° 79.6° - - -
6/26 1:50pm 273 13 G 19 96° 9% - - 29° 98.8° 79.6° - - -
6/26 1:40pm 270 13 G 18 96° 9% - - 27° 98.8° 79.6° - - -
6/26 1:30pm 266 13 G 18 96° 9% - - 29° 98.8° 79.6° - - -
6/26 1:20pm 266 13 G 18 96° 9% - - 29° 98.8° 79.6° - - -
6/26 1:10pm 268 13 G 19 97° 9% - - 29° 98.8° 79.6° - - -
6/26 1:00pm 271 12 G 17 97° 9% - - 27° 98.8° 79.6° - - -
6/26 12:50pm 279 11 G 16 97° 8% - - 27° 98.8° 79.6° - - -
6/26 12:40pm 272 12 G 18 97° 8% - - 26° 98.8° 79.6° - - -
6/26 12:30pm 280 11 G 15 97° 9% - - 29° 98.8° 79.6° - - -
6/26 12:20pm 279 10 G 15 97° 10% - - 31° 98.8° 79.6° - - -
6/26 12:10pm 276 8 G 13 98° 11% - - 34° 98.8° 79.6° - - -
6/26 12:00pm 292 7 G 13 98° 10% - - 31° 98.8° 79.6° - - -
6/26 11:50am 281 8 G 13 98° 10% - - 32° 98.8° 79.6° - - -
6/26 11:40am 280 8 G 15 97° 9% - - 30° 98.3° 79.6° - - -
6/26 11:30am 269 8 G 13 97° 8% - - 27° 98.3° 79.6° - - -
6/26 11:20am 279 8 G 12 97° 8% - - 25° 98.3° 79.6° - - -
6/26 11:10am 273 8 G 13 97° 8% - - 25° 98.3° 79.6° - - -
6/26 11:00am 265 8 G 11 97° 8% - - 25° 98.3° 79.6° - - -
6/26 10:50am 271 6 G 10 97° 8% - - 26° 97.9° 79.6° - - -
6/26 10:40am 295 6 G 10 97° 8% - - 27° 97.9° 79.6° - - -
6/26 10:30am 286 6 G 11 97° 8% - - 27° 97.7° 79.6° - - -
6/26 10:20am 286 5 G 9 96° 8% - - 26° 96.8° 79.6° - - -
6/26 10:10am 317 4 G 8 96° 10% - - 30° 96.8° 79.6° - - -
6/26 10:00am 263 4 G 6 96° 11% - - 33° 96.8° 79.6° - - -
6/26 9:50am 209 3 G 7 96° 12% - - 35° 96.5° 79.6° - - -
6/26 9:40am 178 2 G 4 95° 12% - - 35° 95.7° 79.6° - - -
6/26 9:30am 226 3 G 5 94° 13% - - 36° 94.6° 79.6° - - -
6/26 9:20am 218 2 G 5 94° 13% - - 35° 94.5° 79.6° - - -
6/26 9:10am 208 3 G 5 94° 13% - - 35° 94° 79.6° - - -
6/26 9:00am 174 2 G 4 93° 13% - - 36° 94° 79.6° - - -
6/26 8:50am 179 2 G 4 93° 13% - - 35° 93.2° 79.6° - - -
6/26 8:40am 164 2 G 3 93° 13% - - 34° 93.2° 79.6° - - -
6/26 8:30am 105 2 G 4 92° 14% - - 35° 92.3° 79.6° - - -
6/26 8:20am 112 2 G 4 91° 13% - - 34° 92.1° 79.6° - - -
6/26 8:10am 65 2 G 4 89° 14% - - 34° 89.8° 79.6° - - -
6/26 8:00am 53 3 G 5 87° 15% - - 34° 87.3° 79.6° - - -
6/26 7:50am 46 4 G 6 86° 16% - - 35° 86.5° 79.6° - - -
6/26 7:40am 43 5 G 7 85° 16% - - 35° 85.8° 79.6° - - -
6/26 7:30am 42 5 G 6 85° 17% - - 35° 85.8° 79.6° - - -
6/26 7:20am 42 4 G 6 84° 17% - - 35° 85.8° 79.6° - - -
6/26 7:10am 38 4 G 5 83° 18% - - 35° 85.8° 79.6° - - -
6/26 7:00am 39 5 G 6 83° 18% - - 35° 85.8° 79.6° - - -
6/26 6:50am 40 5 G 6 82° 19% - - 35° 85.8° 79.6° - - -
6/26 6:40am 46 5 G 8 81° 20% - - 35° 85.8° 79.6° - - -
6/26 6:30am 34 6 G 7 81° 19% - - 35° 85.8° 79.6° - - -
6/26 6:20am 29 6 G 7 81° 19% - - 35° 85.8° 79.6° - - -
6/26 6:10am 29 5 G 6 82° 17% - - 34° 85.8° 79.6° - - -
6/26 6:00am 19 5 G 5 82° 18% - - 34° 85.8° 79.6° - - -